createdAt,value
2022-07-30T00:01:15.220Z,20.54
2022-07-30T00:03:41.822Z,20.53
2022-07-30T00:06:08.432Z,20.49
2022-07-30T00:08:37.043Z,20.48
2022-07-30T00:11:03.745Z,20.46
2022-07-30T00:13:30.350Z,20.43
2022-07-30T00:15:56.939Z,20.40
2022-07-30T00:18:23.415Z,20.38
2022-07-30T00:20:49.865Z,20.35
2022-07-30T00:23:18.073Z,20.34
2022-07-30T00:25:44.561Z,20.33
2022-07-30T00:28:11.051Z,20.32
2022-07-30T00:30:38.810Z,20.31
2022-07-30T00:33:05.394Z,20.30
2022-07-30T00:35:35.130Z,20.31
2022-07-30T00:38:01.675Z,20.30
2022-07-30T00:40:28.966Z,20.30
2022-07-30T00:42:55.651Z,20.29
2022-07-30T00:45:22.363Z,20.29
2022-07-30T00:47:49.289Z,20.26
2022-07-30T00:50:16.342Z,20.25
2022-07-30T00:52:43.639Z,20.24
2022-07-30T00:55:13.347Z,20.23
2022-07-30T00:57:40.291Z,20.23
2022-07-30T01:00:09.931Z,20.23
2022-07-30T01:02:36.619Z,20.22
2022-07-30T01:05:04.080Z,20.22
2022-07-30T01:07:30.635Z,20.22
2022-07-30T01:09:57.121Z,20.20
2022-07-30T01:12:25.958Z,20.18
2022-07-30T01:14:53.046Z,20.17
2022-07-30T01:17:20.233Z,20.14
2022-07-30T01:19:56.006Z,20.13
2022-07-30T01:22:30.901Z,20.13
2022-07-30T01:25:09.786Z,20.12
2022-07-30T01:27:58.120Z,20.10
2022-07-30T01:30:28.283Z,20.10
2022-07-30T01:32:56.328Z,20.11
2022-07-30T01:35:25.835Z,20.11
2022-07-30T01:37:54.431Z,20.11
2022-07-30T01:40:23.428Z,20.10
2022-07-30T01:42:57.143Z,20.09
2022-07-30T01:45:25.515Z,20.08
2022-07-30T01:47:54.556Z,20.06
2022-07-30T01:50:22.653Z,20.02
2022-07-30T01:52:52.830Z,20.01
2022-07-30T01:55:26.848Z,20.01
2022-07-30T01:57:55.096Z,19.99
2022-07-30T02:00:24.577Z,19.96
2022-07-30T02:02:51.133Z,19.90
2022-07-30T02:05:17.920Z,19.82
2022-07-30T02:07:47.082Z,19.75
2022-07-30T02:10:19.153Z,19.69
2022-07-30T02:12:52.235Z,19.63
2022-07-30T02:15:37.462Z,19.56
2022-07-30T02:18:16.850Z,19.50
2022-07-30T02:20:49.447Z,19.48
2022-07-30T02:23:18.239Z,19.46
2022-07-30T02:25:49.043Z,19.43
2022-07-30T02:28:18.522Z,19.41
2022-07-30T02:30:51.279Z,19.38
2022-07-30T02:33:23.716Z,19.37
2022-07-30T02:35:54.699Z,19.35
2022-07-30T02:38:22.021Z,19.34
2022-07-30T02:40:50.130Z,19.30
2022-07-30T02:43:18.281Z,19.30
2022-07-30T02:45:48.021Z,19.28
2022-07-30T02:48:35.109Z,19.25
2022-07-30T02:51:04.675Z,19.24
2022-07-30T02:53:32.828Z,19.21
2022-07-30T02:56:01.128Z,19.19
2022-07-30T02:58:29.226Z,19.18
2022-07-30T03:00:57.289Z,19.14
2022-07-30T03:03:29.097Z,19.08
2022-07-30T03:05:57.424Z,19.04
2022-07-30T03:08:26.227Z,19.00
2022-07-30T03:10:55.938Z,18.97
2022-07-30T03:13:24.688Z,18.96
2022-07-30T03:15:53.797Z,18.95
2022-07-30T03:18:22.079Z,18.92
2022-07-30T03:20:51.691Z,18.87
2022-07-30T03:23:19.787Z,18.81
2022-07-30T03:25:54.492Z,18.75
2022-07-30T03:28:23.483Z,18.71
2022-07-30T03:30:51.765Z,18.65
2022-07-30T03:33:19.958Z,18.58
2022-07-30T03:35:48.869Z,18.49
2022-07-30T03:38:15.674Z,18.41
2022-07-30T03:40:44.129Z,18.32
2022-07-30T03:43:33.662Z,18.25
2022-07-30T03:46:01.000Z,18.13
2022-07-30T03:48:31.269Z,18.05
2022-07-30T03:50:58.955Z,17.97
2022-07-30T03:53:27.634Z,17.91
2022-07-30T03:56:14.236Z,17.85
2022-07-30T03:58:52.874Z,17.79
2022-07-30T04:01:19.548Z,17.74
2022-07-30T04:03:46.443Z,17.71
2022-07-30T04:06:13.099Z,17.69
2022-07-30T04:08:39.629Z,17.67
2022-07-30T04:11:06.277Z,17.68
2022-07-30T04:13:58.983Z,17.65
2022-07-30T04:16:53.241Z,17.62
2022-07-30T04:19:28.304Z,17.53
2022-07-30T04:21:59.944Z,17.43
2022-07-30T04:24:28.404Z,17.30
2022-07-30T04:26:59.542Z,17.20
2022-07-30T04:29:27.159Z,17.13
2022-07-30T04:31:55.039Z,17.08
2022-07-30T04:34:48.197Z,17.09
2022-07-30T04:37:17.517Z,17.06
2022-07-30T04:39:44.657Z,17.05
2022-07-30T04:42:11.601Z,17.06
2022-07-30T04:44:38.752Z,17.07
2022-07-30T04:47:24.909Z,17.06
2022-07-30T04:50:12.985Z,17.04
2022-07-30T04:52:41.745Z,17.03
2022-07-30T04:55:11.065Z,16.97
2022-07-30T04:57:40.270Z,16.96
2022-07-30T05:00:07.896Z,16.88
2022-07-30T05:02:40.027Z,16.88
2022-07-30T05:05:08.608Z,16.88
2022-07-30T05:07:37.792Z,16.91
2022-07-30T05:10:06.566Z,16.96
2022-07-30T05:12:35.052Z,17.00
2022-07-30T05:15:01.569Z,17.03
2022-07-30T05:17:28.119Z,17.06
2022-07-30T05:19:54.626Z,17.12
2022-07-30T05:22:21.488Z,17.20
2022-07-30T05:24:48.292Z,17.25
2022-07-30T05:27:14.842Z,17.30
2022-07-30T05:29:41.398Z,17.37
2022-07-30T05:32:12.879Z,17.43
2022-07-30T05:34:39.576Z,17.50
2022-07-30T05:37:06.732Z,17.56
2022-07-30T05:39:36.713Z,17.60
2022-07-30T05:42:41.934Z,17.66
2022-07-30T05:45:09.460Z,17.71
2022-07-30T05:47:36.528Z,17.76
2022-07-30T05:50:05.303Z,17.76
2022-07-30T05:52:32.671Z,17.77
2022-07-30T05:55:07.609Z,17.74
2022-07-30T05:57:50.780Z,17.75
2022-07-30T06:00:17.790Z,17.81
2022-07-30T06:02:44.556Z,17.89
2022-07-30T06:05:26.077Z,17.97
2022-07-30T06:07:55.597Z,18.04
2022-07-30T06:10:23.113Z,18.08
2022-07-30T06:12:49.948Z,18.11
2022-07-30T06:15:25.651Z,18.09
2022-07-30T06:18:01.575Z,18.10
2022-07-30T06:21:01.400Z,18.11
2022-07-30T06:23:46.920Z,18.10
2022-07-30T06:26:21.819Z,18.10
2022-07-30T06:28:48.309Z,18.08
2022-07-30T06:31:19.981Z,18.07
2022-07-30T06:33:46.620Z,18.08
2022-07-30T06:36:14.466Z,18.10
2022-07-30T06:39:02.506Z,18.13
2022-07-30T06:42:04.527Z,18.18
2022-07-30T06:44:51.287Z,18.22
2022-07-30T06:47:29.155Z,18.23
2022-07-30T06:49:57.659Z,18.23
2022-07-30T06:52:25.889Z,18.22
2022-07-30T06:54:53.282Z,18.22
2022-07-30T06:57:26.437Z,18.22
2022-07-30T06:59:56.454Z,18.24
2022-07-30T07:02:42.584Z,18.27
2022-07-30T07:05:11.838Z,18.29
2022-07-30T07:07:43.299Z,18.31
2022-07-30T07:10:17.695Z,18.33
2022-07-30T07:12:52.232Z,18.35
2022-07-30T07:15:21.855Z,18.37
2022-07-30T07:17:49.286Z,18.45
2022-07-30T07:20:26.917Z,18.52
2022-07-30T07:23:01.666Z,18.67
2022-07-30T07:25:33.352Z,18.84
2022-07-30T07:28:11.809Z,18.99
2022-07-30T07:30:44.123Z,19.17
2022-07-30T07:33:12.244Z,19.28
2022-07-30T07:35:49.054Z,19.39
2022-07-30T07:38:20.832Z,19.58
2022-07-30T07:40:48.914Z,19.74
2022-07-30T07:43:15.982Z,19.84
2022-07-30T07:45:43.232Z,19.84
2022-07-30T07:48:10.031Z,19.83
2022-07-30T07:50:48.517Z,19.86
2022-07-30T07:53:22.026Z,19.89
2022-07-30T07:55:49.003Z,19.83
2022-07-30T07:58:17.543Z,19.78
2022-07-30T08:00:54.896Z,19.76
2022-07-30T08:03:25.711Z,19.73
2022-07-30T08:06:02.681Z,19.73
2022-07-30T08:09:07.768Z,19.70
2022-07-30T08:11:53.086Z,19.70
2022-07-30T08:14:38.035Z,19.77
2022-07-30T08:17:30.476Z,19.90
2022-07-30T08:20:18.606Z,20.03
2022-07-30T08:22:46.185Z,20.15
2022-07-30T08:25:24.159Z,20.24
2022-07-30T08:27:51.581Z,20.34
2022-07-30T08:30:20.233Z,20.37
2022-07-30T08:32:46.852Z,20.47
2022-07-30T08:35:13.418Z,20.60
2022-07-30T08:37:41.109Z,20.75
2022-07-30T08:40:09.083Z,20.86
2022-07-30T08:42:42.767Z,20.91
2022-07-30T08:45:12.324Z,20.88
2022-07-30T08:47:41.244Z,20.85
2022-07-30T08:50:11.584Z,20.82
2022-07-30T08:53:03.823Z,20.82
2022-07-30T08:55:31.493Z,20.85
2022-07-30T08:57:58.729Z,20.91
2022-07-30T09:00:26.242Z,20.90
2022-07-30T09:02:52.819Z,20.96
2022-07-30T09:05:19.362Z,21.03
2022-07-30T09:07:46.168Z,21.06
2022-07-30T09:10:21.170Z,21.09
2022-07-30T09:12:47.748Z,21.18
2022-07-30T09:15:20.188Z,21.23
2022-07-30T09:17:57.124Z,21.24
2022-07-30T09:20:30.281Z,21.26
2022-07-30T09:23:03.793Z,21.30
2022-07-30T09:25:49.787Z,21.33
2022-07-30T09:28:34.981Z,21.35
2022-07-30T09:31:13.881Z,21.42
2022-07-30T09:33:59.569Z,21.45
2022-07-30T09:37:04.569Z,21.46
2022-07-30T09:39:59.543Z,21.44
2022-07-30T09:43:25.945Z,21.44
2022-07-30T09:46:01.570Z,21.48
2022-07-30T09:48:28.547Z,21.50
2022-07-30T09:50:57.365Z,21.55
2022-07-30T09:53:24.745Z,21.65
2022-07-30T09:55:51.326Z,21.71
2022-07-30T09:58:27.080Z,21.81
2022-07-30T10:01:01.555Z,21.90
2022-07-30T10:03:43.010Z,22.08
2022-07-30T10:06:38.138Z,22.24
2022-07-30T10:09:37.380Z,22.40
2022-07-30T10:12:10.527Z,22.57
2022-07-30T10:14:44.938Z,22.75
2022-07-30T10:17:15.104Z,22.86
2022-07-30T10:19:52.984Z,22.94
2022-07-30T10:22:56.658Z,23.01
2022-07-30T10:25:27.987Z,23.09
2022-07-30T10:28:38.439Z,23.18
2022-07-30T10:31:47.396Z,23.24
2022-07-30T10:33:52.957Z,23.39
2022-07-30T10:36:21.784Z,23.61
2022-07-30T10:38:52.908Z,23.82
2022-07-30T10:42:02.361Z,24.03
2022-07-30T10:44:51.702Z,24.25
2022-07-30T10:47:19.295Z,24.40
2022-07-30T10:50:22.328Z,24.61
2022-07-30T10:52:54.759Z,24.86
2022-07-30T10:55:37.332Z,25.09
2022-07-30T10:58:14.320Z,25.31
2022-07-30T11:00:54.456Z,25.48
2022-07-30T11:03:23.579Z,25.64
2022-07-30T11:06:16.318Z,25.80
2022-07-30T11:08:45.288Z,25.91
2022-07-30T11:11:20.884Z,25.97
2022-07-30T11:14:07.660Z,26.06
2022-07-30T11:16:34.789Z,26.12
2022-07-30T11:22:25.370Z,26.20
2022-07-30T11:24:52.839Z,26.15
2022-07-30T11:27:50.286Z,26.11
2022-07-30T11:30:23.606Z,26.14
2022-07-30T11:33:03.140Z,26.25
2022-07-30T11:35:34.906Z,26.44
2022-07-30T11:38:07.318Z,26.60
2022-07-30T11:40:42.462Z,26.73
2022-07-30T11:43:34.898Z,26.76
2022-07-30T11:46:16.485Z,26.71
2022-07-30T11:48:55.743Z,26.74
2022-07-30T11:51:22.698Z,26.79
2022-07-30T11:54:02.209Z,26.83
2022-07-30T11:56:28.950Z,26.86
2022-07-30T11:59:03.731Z,26.95
2022-07-30T12:01:30.999Z,26.99
2022-07-30T12:03:57.795Z,27.00
2022-07-30T12:06:24.316Z,27.01
2022-07-30T12:08:58.298Z,27.10
2022-07-30T12:11:32.049Z,27.22
2022-07-30T12:14:01.934Z,27.36
2022-07-30T12:16:31.214Z,27.54
2022-07-30T12:19:05.845Z,27.76
2022-07-30T12:21:33.191Z,27.96
2022-07-30T12:24:04.014Z,28.14
2022-07-30T12:26:34.430Z,28.36
2022-07-30T12:29:05.008Z,28.63
2022-07-30T12:31:33.678Z,28.82
2022-07-30T12:34:00.911Z,29.03
2022-07-30T12:36:32.772Z,29.16
2022-07-30T12:39:01.066Z,29.29
2022-07-30T12:41:48.434Z,29.39
2022-07-30T12:44:40.822Z,29.51
2022-07-30T12:47:26.004Z,29.59
2022-07-30T12:49:54.290Z,29.66
2022-07-30T12:52:28.214Z,29.63
2022-07-30T12:55:10.835Z,29.65
2022-07-30T12:58:00.762Z,29.61
2022-07-30T13:00:43.863Z,29.62
2022-07-30T13:03:40.640Z,29.54
2022-07-30T13:06:14.301Z,29.41
2022-07-30T13:08:55.339Z,29.39
2022-07-30T13:11:24.807Z,29.51
2022-07-30T13:13:52.399Z,29.56
2022-07-30T13:16:20.173Z,29.61
2022-07-30T13:18:47.524Z,29.63
2022-07-30T13:21:14.178Z,29.58
2022-07-30T13:23:41.773Z,29.60
2022-07-30T13:26:09.639Z,29.64
2022-07-30T13:28:36.444Z,29.68
2022-07-30T13:31:03.772Z,29.54
2022-07-30T13:33:30.682Z,29.42
2022-07-30T13:35:57.243Z,29.20
2022-07-30T13:38:23.851Z,28.99
2022-07-30T13:40:51.099Z,28.70
2022-07-30T13:43:18.110Z,28.42
2022-07-30T13:45:44.872Z,28.15
2022-07-30T13:48:11.608Z,27.88
2022-07-30T13:50:38.324Z,27.66
2022-07-30T13:53:05.645Z,27.46
2022-07-30T13:55:32.969Z,27.26
2022-07-30T13:57:59.874Z,27.10
2022-07-30T14:00:32.262Z,26.96
2022-07-30T14:03:00.698Z,26.85
2022-07-30T14:05:27.914Z,26.72
2022-07-30T14:07:54.741Z,26.61
2022-07-30T14:10:22.779Z,26.51
2022-07-30T14:12:55.023Z,26.43
2022-07-30T14:15:22.751Z,26.35
2022-07-30T14:17:56.105Z,26.29
2022-07-30T14:20:23.730Z,26.23
2022-07-30T14:22:50.730Z,26.18
2022-07-30T14:25:17.614Z,26.10
2022-07-30T14:27:44.095Z,26.02
2022-07-30T14:30:15.262Z,25.84
2022-07-30T14:32:41.756Z,25.63
2022-07-30T14:35:09.371Z,25.42
2022-07-30T14:37:38.026Z,24.98
2022-07-30T14:40:13.374Z,24.66
2022-07-30T14:42:40.526Z,24.52
2022-07-30T14:45:09.054Z,24.46
2022-07-30T14:47:36.293Z,24.39
2022-07-30T14:50:03.578Z,24.27
2022-07-30T14:52:30.914Z,24.14
2022-07-30T14:54:57.395Z,24.06
2022-07-30T14:57:24.489Z,24.00
2022-07-30T14:59:50.986Z,24.00
2022-07-30T15:02:17.882Z,24.02
2022-07-30T15:04:44.369Z,24.07
2022-07-30T15:07:13.006Z,24.09
2022-07-30T15:09:39.578Z,24.09
2022-07-30T15:12:09.982Z,24.10
2022-07-30T15:14:40.946Z,24.13
2022-07-30T15:17:07.934Z,24.17
2022-07-30T15:19:34.556Z,24.18
2022-07-30T15:22:02.495Z,24.18
2022-07-30T15:24:29.174Z,24.19
2022-07-30T15:26:56.404Z,24.21
2022-07-30T15:29:24.176Z,24.21
2022-07-30T15:31:51.401Z,24.20
2022-07-30T15:34:17.987Z,24.17
2022-07-30T15:36:44.492Z,24.17
2022-07-30T15:39:11.186Z,24.19
2022-07-30T15:41:37.799Z,24.19
2022-07-30T15:44:05.408Z,24.19
2022-07-30T15:46:31.956Z,24.20
2022-07-30T15:48:58.953Z,24.22
2022-07-30T15:51:25.465Z,24.23
2022-07-30T15:53:51.965Z,24.25
2022-07-30T15:56:18.680Z,24.27
2022-07-30T15:58:45.185Z,24.25
2022-07-30T16:01:11.828Z,24.23
2022-07-30T16:03:38.642Z,24.21
2022-07-30T16:06:07.903Z,24.23
2022-07-30T16:08:34.367Z,24.24
2022-07-30T16:11:03.783Z,24.27
2022-07-30T16:13:31.703Z,24.32
2022-07-30T16:15:58.405Z,24.38
2022-07-30T16:18:24.875Z,24.44
2022-07-30T16:20:51.515Z,24.48
2022-07-30T16:23:21.336Z,24.52
2022-07-30T16:25:48.410Z,24.54
2022-07-30T16:28:14.929Z,24.56
2022-07-30T16:30:50.692Z,24.59
2022-07-30T16:33:19.189Z,24.59
2022-07-30T16:35:49.323Z,24.58
2022-07-30T16:38:18.605Z,24.57
2022-07-30T16:40:45.516Z,24.55
2022-07-30T16:43:12.371Z,24.51
2022-07-30T16:45:39.477Z,24.48
2022-07-30T16:48:06.595Z,24.42
2022-07-30T16:50:33.271Z,24.35
2022-07-30T16:53:00.444Z,24.30
2022-07-30T16:55:27.153Z,24.24
2022-07-30T16:57:53.689Z,24.17
2022-07-30T17:00:20.210Z,24.08
2022-07-30T17:02:46.710Z,23.98
2022-07-30T17:05:13.925Z,23.90
2022-07-30T17:07:40.684Z,23.81
2022-07-30T17:10:11.048Z,23.67
2022-07-30T17:12:40.739Z,23.55
2022-07-30T17:15:07.919Z,23.44
2022-07-30T17:17:34.528Z,23.30
2022-07-30T17:20:02.950Z,23.17
2022-07-30T17:22:29.953Z,23.05
2022-07-30T17:24:56.449Z,22.75
2022-07-30T17:27:22.941Z,21.96
2022-07-30T17:29:50.378Z,21.45
2022-07-30T17:32:19.071Z,21.08
2022-07-30T17:34:46.180Z,20.77
2022-07-30T17:37:12.650Z,20.65
2022-07-30T17:40:26.912Z,20.68
2022-07-30T17:42:26.331Z,20.81
2022-07-30T17:44:52.866Z,21.03
2022-07-30T17:47:19.370Z,21.15
2022-07-30T17:49:46.260Z,21.07
2022-07-30T17:52:13.050Z,21.13
2022-07-30T17:54:39.792Z,21.32
2022-07-30T17:57:06.377Z,21.29
2022-07-30T17:59:32.947Z,21.24
2022-07-30T18:01:59.938Z,21.19
2022-07-30T18:04:27.337Z,21.15
2022-07-30T18:06:53.915Z,21.16
2022-07-30T18:09:20.462Z,21.42
2022-07-30T18:11:47.009Z,21.70
2022-07-30T18:14:13.541Z,21.78
2022-07-30T18:16:40.193Z,21.65
2022-07-30T18:19:06.795Z,21.56
2022-07-30T18:21:35.155Z,21.54
2022-07-30T18:24:05.456Z,21.50
2022-07-30T18:26:36.591Z,21.45
2022-07-30T18:29:03.597Z,21.46
2022-07-30T18:31:30.084Z,21.49
2022-07-30T18:33:56.691Z,21.52
2022-07-30T18:36:23.354Z,21.56
2022-07-30T18:38:49.886Z,21.59
2022-07-30T18:41:18.751Z,21.57
2022-07-30T18:43:48.312Z,21.55
2022-07-30T18:46:15.576Z,21.51
2022-07-30T18:48:42.264Z,21.48
2022-07-30T18:51:13.418Z,21.42
2022-07-30T18:53:41.501Z,21.35
2022-07-30T18:56:08.070Z,21.27
2022-07-30T18:58:34.669Z,21.19
2022-07-30T19:01:01.254Z,21.07
2022-07-30T19:03:27.780Z,20.98
2022-07-30T19:05:57.169Z,20.88
2022-07-30T19:08:23.659Z,20.80
2022-07-30T19:10:50.398Z,20.73
2022-07-30T19:13:16.984Z,20.68
2022-07-30T19:15:43.479Z,20.61
2022-07-30T19:18:10.477Z,20.56
2022-07-30T19:20:37.306Z,20.53
2022-07-30T19:23:05.546Z,20.46
2022-07-30T19:25:34.371Z,20.42
2022-07-30T19:28:02.051Z,20.38
2022-07-30T19:30:29.596Z,20.33
2022-07-30T19:33:02.970Z,20.28
2022-07-30T19:35:29.828Z,20.25
2022-07-30T19:37:56.364Z,20.21
2022-07-30T19:40:22.944Z,20.15
2022-07-30T19:42:55.713Z,20.09
2022-07-30T19:45:22.649Z,20.03
2022-07-30T19:47:49.147Z,19.97
2022-07-30T19:50:15.875Z,19.95
2022-07-30T19:52:51.259Z,19.91
2022-07-30T19:55:35.051Z,19.87
2022-07-30T19:58:15.884Z,19.84
2022-07-30T20:00:49.392Z,19.81
2022-07-30T20:03:25.343Z,19.80
2022-07-30T20:05:54.991Z,19.81
2022-07-30T20:08:25.548Z,19.82
2022-07-30T20:10:52.493Z,19.83
2022-07-30T20:13:19.076Z,19.83
2022-07-30T20:15:46.418Z,19.84
2022-07-30T20:18:13.051Z,19.84
2022-07-30T20:20:41.270Z,19.85
2022-07-30T20:23:08.252Z,19.85
2022-07-30T20:25:37.070Z,19.86
2022-07-30T20:28:05.268Z,19.85
2022-07-30T20:30:32.630Z,19.84
2022-07-30T20:32:59.326Z,19.82
2022-07-30T20:35:29.265Z,19.80
2022-07-30T20:37:56.739Z,19.76
2022-07-30T20:40:26.731Z,19.72
2022-07-30T20:42:54.341Z,19.68
2022-07-30T20:45:21.297Z,19.62
2022-07-30T20:47:52.771Z,19.56
2022-07-30T20:50:19.332Z,19.50
2022-07-30T20:52:57.637Z,19.46
2022-07-30T20:55:24.150Z,19.42
2022-07-30T20:57:59.290Z,19.37
2022-07-30T21:00:36.660Z,19.33
2022-07-30T21:03:05.376Z,19.29
2022-07-30T21:05:31.879Z,19.25
2022-07-30T21:07:58.711Z,19.20
2022-07-30T21:10:25.557Z,19.19
2022-07-30T21:12:53.297Z,19.16
2022-07-30T21:15:25.426Z,19.14
2022-07-30T21:17:53.400Z,19.15
2022-07-30T21:20:27.464Z,19.12
2022-07-30T21:22:55.244Z,19.09
2022-07-30T21:25:23.590Z,19.08
2022-07-30T21:28:00.618Z,19.06
2022-07-30T21:30:29.708Z,19.04
2022-07-30T21:32:56.518Z,19.04
2022-07-30T21:35:23.060Z,19.03
2022-07-30T21:37:49.602Z,19.03
2022-07-30T21:40:16.210Z,19.02
2022-07-30T21:42:48.761Z,19.01
2022-07-30T21:45:15.680Z,19.00
2022-07-30T21:47:47.993Z,18.97
2022-07-30T21:50:16.066Z,18.94
2022-07-30T21:52:43.245Z,18.92
2022-07-30T21:55:13.560Z,18.88
2022-07-30T21:57:40.693Z,18.84
2022-07-30T22:00:21.773Z,18.79
2022-07-30T22:02:52.893Z,18.77
2022-07-30T22:05:21.705Z,18.77
2022-07-30T22:07:50.160Z,18.75
2022-07-30T22:10:21.495Z,18.73
2022-07-30T22:12:48.550Z,18.71
2022-07-30T22:15:15.340Z,18.68
2022-07-30T22:17:58.671Z,18.66
2022-07-30T22:20:30.549Z,18.64
2022-07-30T22:22:58.880Z,18.61
2022-07-30T22:25:43.695Z,18.58
2022-07-30T22:28:10.753Z,18.56
2022-07-30T22:30:38.037Z,18.54
2022-07-30T22:33:16.069Z,18.53
2022-07-30T22:35:46.596Z,18.53
2022-07-30T22:38:13.965Z,18.54
2022-07-30T22:40:41.952Z,18.55
2022-07-30T22:43:12.474Z,18.54
2022-07-30T22:45:47.688Z,18.54
2022-07-30T22:48:19.117Z,18.54
2022-07-30T22:50:52.868Z,18.56
2022-07-30T22:54:11.774Z,18.58
2022-07-30T22:56:07.209Z,18.61
2022-07-30T22:58:40.844Z,18.64
2022-07-30T23:01:09.285Z,18.66
2022-07-30T23:03:37.642Z,18.66
2022-07-30T23:06:04.143Z,18.67
2022-07-30T23:08:33.072Z,18.68
2022-07-30T23:11:00.026Z,18.68
2022-07-30T23:13:27.785Z,18.68
2022-07-30T23:15:54.471Z,18.67
2022-07-30T23:18:20.994Z,18.65
2022-07-30T23:20:47.508Z,18.61
2022-07-30T23:23:14.107Z,18.61
2022-07-30T23:25:40.639Z,18.57
2022-07-30T23:28:07.131Z,18.57
2022-07-30T23:30:34.486Z,18.57
2022-07-30T23:33:01.585Z,18.56
2022-07-30T23:35:28.116Z,18.55
2022-07-30T23:37:54.670Z,18.55
2022-07-30T23:40:21.162Z,18.54
2022-07-30T23:42:49.990Z,18.52
2022-07-30T23:45:17.408Z,18.48
2022-07-30T23:48:02.139Z,18.45
2022-07-30T23:50:32.912Z,18.40
2022-07-30T23:53:00.546Z,18.35
2022-07-30T23:55:27.390Z,18.30
2022-07-30T23:57:54.373Z,18.24
